Accueil
METAR-TAF:

METAR-TAF

Aéroports :

Kochi, Japon

latitude: 33-32N, longitude: 133-40E, altitude: 7 m

Observation

Le bulletin a été fait il y a 1 heure et 31 minutes, à 11:00 UTC
Vent 5 kt de nord-ouest, variant entre ouest et nord/nord-ouest
Température 6°C
Humidité 65%
Pression 1019 hPa
Visibilité 10 km ou plus
Quelques nuages à une hauteur de 3000 ft

METAR: RJOK 201100Z 31005KT 270V340 9999 FEW030 06/M00 Q1019

Heure: 21:31 (12:31 UTC)

Prévision

Le bulletin a été fait il y a 1 heure et 23 minutes, à 11:08 UTC
Prévision valable du 20 à 12 UTC au 21 à 18 UTC
Vent 5 kt de nord/nord-ouest
Visibilité 10 km ou plus
Quelques nuages à une hauteur de 3000 ft
Evoluant progressivement
du 21 à 00 UTC au 21 à 03 UTC
Vent 16 kt de nord

TAF: RJOK 201108Z 2012/2118 34005KT 9999 FEW030 BECMG 2100/2103 35016KT

Observations et prévisions météorologiques de plus de 4000 aéroports (messages METAR et TAF).

Les stations disponibles sont représentées par des disques jaunes et rouges sur la carte.

Passer la souris dessus pour voir le nom de la station.

Cliquer dessus pour voir les observations et prévisions météorologiques.

Pour changer de carte: cliquez sur les boutons verts avec une croix noire pour zoomer, sur le bouton vert avec un tiret pour effectuer un zoom arrière, ou sur les flèches vertes pour les cartes adjacentes.


METAR-TAF: